Time;durP1;ratioP1;P1;durP2;ratioP2;P2;SDS_P1;SDS_P2;PMS_P1;PMS_P2;Temp;Humidity;BMP_temperature;BMP_pressure;BME280_temperature;BME280_humidity;BME280_pressure;Samples;Min_cycle;Max_cycle;Signal;HPM_P1;HPM_P2
2024/01/01 00:00:48;;;;;;;0.80;0.80;;;;;;;5.75;70.77;97727.84;5027921;28;20099;-89
2024/01/01 00:03:15;;;;;;;0.90;0.90;;;;;;;5.73;70.73;97732.19;5027413;28;20049;-89
2024/01/01 00:05:40;;;;;;;1.00;1.00;;;;;;;5.46;72.14;97731.28;5010612;28;20029;-89
2024/01/01 00:08:07;;;;;;;0.90;0.90;;;;;;;5.52;71.01;97728.84;5040986;28;20116;-88
2024/01/01 00:10:32;;;;;;;0.80;0.80;;;;;;;5.77;70.03;97738.47;5008643;28;20037;-89
2024/01/01 00:12:58;;;;;;;0.88;0.88;;;;;;;5.86;70.12;97733.47;5005714;28;20034;-90
2024/01/01 00:15:23;;;;;;;0.80;0.80;;;;;;;5.90;70.07;97730.97;5024860;28;20026;-90
2024/01/01 00:17:49;;;;;;;0.80;0.80;;;;;;;6.09;68.85;97734.22;5028073;28;20088;-89
2024/01/01 00:20:15;;;;;;;0.80;0.80;;;;;;;6.29;68.07;97729.53;5011697;28;20033;-88
2024/01/01 00:22:42;;;;;;;0.80;0.80;;;;;;;6.32;68.28;97719.91;5027166;28;20026;-89
2024/01/01 00:25:08;;;;;;;0.90;0.90;;;;;;;6.26;68.30;97727.66;5024819;28;20324;-89
2024/01/01 00:27:34;;;;;;;0.80;0.80;;;;;;;6.36;68.16;97729.72;5010016;28;20049;-88
2024/01/01 00:30:00;;;;;;;0.80;0.80;;;;;;;6.40;67.19;97728.97;5010214;28;20060;-87
2024/01/01 00:32:26;;;;;;;0.90;0.90;;;;;;;6.42;67.33;97732.59;5042917;28;20068;-88
2024/01/01 00:34:52;;;;;;;0.90;0.90;;;;;;;6.48;67.29;97731.84;5024701;28;20049;-88
2024/01/01 00:37:18;;;;;;;0.88;0.88;;;;;;;6.38;67.59;97736.00;5001063;28;20029;-89
2024/01/01 00:39:43;;;;;;;0.80;0.80;;;;;;;6.31;67.95;97735.75;5013726;28;20083;-88
2024/01/01 00:42:09;;;;;;;0.90;0.90;;;;;;;6.30;68.05;97732.22;5011476;28;20355;-87
2024/01/01 00:44:34;;;;;;;0.90;0.90;;;;;;;6.23;67.65;97724.94;5011074;28;20549;-89
2024/01/01 00:47:03;;;;;;;0.80;0.80;;;;;;;6.31;67.83;97730.47;4993765;28;20038;-88
2024/01/01 00:49:28;;;;;;;0.90;0.90;;;;;;;6.29;67.66;97741.00;5013714;28;20124;-89
2024/01/01 00:51:54;;;;;;;0.80;0.80;;;;;;;6.33;67.63;97742.00;5011227;28;20060;-89
2024/01/01 00:54:19;;;;;;;0.90;0.90;;;;;;;6.27;67.75;97732.09;4993093;28;20499;-89
2024/01/01 00:56:45;;;;;;;0.80;0.80;;;;;;;6.26;67.79;97735.63;5006374;28;20570;-89
2024/01/01 00:59:10;;;;;;;0.80;0.80;;;;;;;6.30;67.47;97737.50;5006194;28;20420;-89
2024/01/01 01:01:37;;;;;;;0.90;0.90;;;;;;;6.27;68.01;97729.47;5013023;28;20038;-88
2024/01/01 01:04:03;;;;;;;;;;;;;;;6.20;67.81;97730.16;4995695;28;20034;-89
2024/01/01 01:06:28;;;;;;;0.90;0.90;;;;;;;6.05;68.79;97729.69;4995835;28;19975;-89
2024/01/01 01:08:55;;;;;;;0.90;0.90;;;;;;;6.14;68.53;97741.44;5010038;28;20029;-88
2024/01/01 01:11:21;;;;;;;0.90;0.90;;;;;;;6.12;68.43;97742.25;4991731;28;20496;-89
2024/01/01 01:13:48;;;;;;;0.80;0.80;;;;;;;6.07;69.08;97733.25;4994299;28;20026;-88
2024/01/01 01:16:13;;;;;;;0.80;0.80;;;;;;;6.06;69.30;97739.41;5012581;28;20030;-89
2024/01/01 01:18:40;;;;;;;1.00;1.00;;;;;;;6.03;69.88;97739.31;4978129;28;20096;-89
2024/01/01 01:21:06;;;;;;;1.00;1.00;;;;;;;5.90;70.30;97741.56;5023961;28;20034;-89
2024/01/01 01:23:32;;;;;;;0.90;0.90;;;;;;;5.91;70.51;97737.16;5011386;28;20056;-89
2024/01/01 01:25:57;;;;;;;1.00;1.00;;;;;;;6.02;70.14;97740.16;4990138;28;20476;-89
2024/01/01 01:28:23;;;;;;;0.80;0.80;;;;;;;6.09;69.82;97743.06;5011282;28;20048;-88
2024/01/01 01:30:50;;;;;;;0.80;0.80;;;;;;;6.05;69.84;97735.88;5011234;28;20041;-90
2024/01/01 01:33:16;;;;;;;0.88;0.88;;;;;;;6.15;69.40;97745.91;5006827;28;20049;-88
2024/01/01 01:35:42;;;;;;;0.90;0.90;;;;;;;6.24;68.92;97753.22;5009682;28;20519;-87
2024/01/01 01:38:08;;;;;;;0.90;0.90;;;;;;;6.23;69.10;97748.78;5008606;28;20041;-89
2024/01/01 01:40:36;;;;;;;0.82;0.82;;;;;;;6.29;68.83;97754.25;4995275;28;20116;-88
2024/01/01 01:43:02;;;;;;;0.90;0.90;;;;;;;6.42;68.37;97756.44;5010654;28;20117;-88
2024/01/01 01:45:27;;;;;;;0.90;0.90;;;;;;;6.37;68.96;97754.47;4997638;28;20030;-90
2024/01/01 01:47:53;;;;;;;0.90;0.90;;;;;;;6.15;69.86;97758.25;4993761;28;20034;-89
2024/01/01 01:50:20;;;;;;;0.90;0.90;;;;;;;6.11;70.03;97759.00;5008490;28;20034;-89
2024/01/01 01:52:47;;;;;;;0.90;0.90;;;;;;;6.19;69.14;97762.78;5009267;28;20464;-89
2024/01/01 01:55:13;;;;;;;;;;;;;;;6.27;68.81;97760.34;5007297;28;20030;-89
2024/01/01 01:57:40;;;;;;;0.90;0.90;;;;;;;6.29;68.95;97767.50;5034570;28;19924;-91
2024/01/01 02:00:07;;;;;;;0.90;0.90;;;;;;;6.37;68.55;97767.72;5017948;28;20472;-88
2024/01/01 02:02:53;;;;;;;0.80;0.80;;;;;;;6.18;69.59;97763.66;5056034;28;20053;-89
2024/01/01 02:05:18;;;;;;;0.90;0.90;;;;;;;6.06;69.92;97760.59;5039244;28;20067;-90
2024/01/01 02:07:45;;;;;;;0.80;0.80;;;;;;;6.11;70.67;97766.94;5051026;28;20499;-88
2024/01/01 02:10:11;;;;;;;0.80;0.80;;;;;;;6.24;68.85;97758.53;5046371;28;20111;-88
2024/01/01 02:12:37;;;;;;;1.00;1.00;;;;;;;6.21;69.20;97758.41;5028192;28;20041;-88
2024/01/01 02:15:03;;;;;;;0.90;0.90;;;;;;;6.27;69.14;97752.41;5047383;28;20044;-87
2024/01/01 02:17:28;;;;;;;0.80;0.80;;;;;;;6.32;69.05;97756.97;5033078;28;20041;-87
2024/01/01 02:19:54;;;;;;;0.90;0.90;;;;;;;6.28;68.72;97755.13;5029990;28;20047;-88
2024/01/01 02:22:19;;;;;;;0.90;0.90;;;;;;;6.20;69.65;97745.13;5046929;28;20037;-88
2024/01/01 02:24:45;;;;;;;0.90;0.90;;;;;;;6.32;69.26;97741.09;5011372;28;20103;-88
2024/01/01 02:27:10;;;;;;;0.80;0.80;;;;;;;6.26;69.60;97750.59;5030970;28;20044;-87
2024/01/01 02:29:36;;;;;;;0.90;0.90;;;;;;;6.29;69.51;97746.31;5048350;28;20052;-87
2024/01/01 02:32:02;;;;;;;0.90;0.90;;;;;;;6.32;69.19;97748.13;5043858;28;20037;-87
2024/01/01 02:34:28;;;;;;;0.90;0.90;;;;;;;6.17;70.10;97746.81;5052658;28;20534;-89
2024/01/01 02:36:54;;;;;;;0.88;0.88;;;;;;;6.08;70.10;97741.25;5011658;28;20037;-89
2024/01/01 02:39:20;;;;;;;0.90;0.90;;;;;;;6.02;70.11;97741.06;5043576;28;20032;-87
2024/01/01 02:41:45;;;;;;;0.80;0.80;;;;;;;6.13;69.82;97741.38;5009224;28;20493;-88
2024/01/01 02:44:12;;;;;;;0.90;0.90;;;;;;;6.10;70.09;97746.63;5009740;28;20034;-90
2024/01/01 02:46:38;;;;;;;0.90;0.90;;;;;;;6.16;69.38;97752.97;5007204;28;20064;-88
2024/01/01 02:49:03;;;;;;;0.80;0.80;;;;;;;6.10;70.29;97763.41;5008291;28;20467;-88
2024/01/01 02:51:29;;;;;;;0.90;0.90;;;;;;;6.15;70.28;97755.59;5006812;28;20104;-89
2024/01/01 02:53:56;;;;;;;1.00;1.00;;;;;;;6.17;69.69;97757.41;4989592;28;20100;-87
2024/01/01 02:56:25;;;;;;;1.00;1.00;;;;;;;6.21;69.46;97757.53;5005452;28;20022;-88
2024/01/01 02:58:52;;;;;;;0.90;0.90;;;;;;;6.14;70.09;97757.34;4993625;28;20100;-88
2024/01/01 03:01:18;;;;;;;0.90;0.90;;;;;;;6.16;70.21;97752.09;4993016;28;20037;-88
2024/01/01 03:03:43;;;;;;;0.80;0.80;;;;;;;6.10;70.44;97749.25;4992998;28;20622;-89
2024/01/01 03:06:09;;;;;;;0.80;0.80;;;;;;;6.19;70.29;97746.91;4992376;28;20042;-88
2024/01/01 03:08:38;;;;;;;0.90;0.90;;;;;;;6.16;70.44;97749.44;5011057;28;20045;-88
2024/01/01 03:11:07;;;;;;;0.80;0.80;;;;;;;6.18;70.71;97755.69;5012291;28;20049;-88
2024/01/01 03:13:33;;;;;;;0.80;0.80;;;;;;;6.16;70.96;97757.38;5012360;28;20037;-88
2024/01/01 03:16:02;;;;;;;0.85;0.85;;;;;;;6.00;71.75;97760.41;5033425;28;20405;-89
2024/01/01 03:18:30;;;;;;;0.90;0.90;;;;;;;5.82;73.92;97763.34;5013752;28;20069;-88
2024/01/01 03:20:56;;;;;;;0.90;0.90;;;;;;;5.74;73.42;97756.91;5030212;28;20030;-88
2024/01/01 03:23:21;;;;;;;0.90;0.90;;;;;;;5.77;72.67;97760.53;5013540;28;20041;-88
2024/01/01 03:25:47;;;;;;;0.80;0.80;;;;;;;5.65;73.27;97761.06;5009911;28;20029;-88
2024/01/01 03:28:13;;;;;;;0.90;0.90;;;;;;;5.73;72.78;97768.34;4993813;28;20030;-88
2024/01/01 03:30:38;;;;;;;0.82;0.82;;;;;;;5.79;72.48;97774.72;4994143;28;20416;-87
2024/01/01 03:33:04;;;;;;;0.90;0.90;;;;;;;5.90;72.22;97773.34;5005273;28;20038;-88
2024/01/01 03:35:31;;;;;;;0.90;0.90;;;;;;;5.99;71.91;97775.41;5008670;28;20168;-90
2024/01/01 03:38:01;;;;;;;1.00;1.00;;;;;;;6.03;71.81;97785.22;5004893;28;20030;-89
2024/01/01 03:40:27;;;;;;;0.90;0.90;;;;;;;6.03;71.90;97776.38;5006516;28;20046;-89
2024/01/01 03:42:53;;;;;;;0.80;0.80;;;;;;;5.95;71.91;97785.84;5005278;28;20037;-88
2024/01/01 03:45:20;;;;;;;0.90;0.90;;;;;;;6.03;71.91;97784.31;5006004;28;20040;-89
2024/01/01 03:47:45;;;;;;;0.90;0.90;;;;;;;6.01;71.64;97780.75;4990813;28;20033;-88
2024/01/01 03:50:14;;;;;;;0.80;0.80;;;;;;;6.12;71.42;97784.63;5006132;28;20037;-87
2024/01/01 03:52:40;;;;;;;0.80;0.80;;;;;;;6.07;71.43;97784.47;5006126;28;20052;-88
2024/01/01 03:55:06;;;;;;;0.95;0.95;;;;;;;6.13;71.30;97783.75;5005373;28;20038;-88
2024/01/01 03:57:32;;;;;;;0.90;0.90;;;;;;;6.04;71.65;97783.50;4990888;28;20041;-88
2024/01/01 03:59:59;;;;;;;0.80;0.80;;;;;;;6.03;71.60;97785.22;5006190;28;20030;-88
2024/01/01 04:02:25;;;;;;;0.90;0.90;;;;;;;6.01;71.94;97799.28;4991097;28;20049;-88
2024/01/01 04:04:51;;;;;;;1.00;1.00;;;;;;;6.06;71.84;97792.38;5006665;28;20026;-88
2024/01/01 04:07:17;;;;;;;0.90;0.90;;;;;;;5.99;72.15;97799.25;5006866;28;20671;-89
2024/01/01 04:09:43;;;;;;;0.80;0.80;;;;;;;5.95;72.21;97797.34;5004710;28;20531;-88
2024/01/01 04:12:09;;;;;;;;;;;;;;;5.95;72.16;97791.16;4991793;28;20042;-89
2024/01/01 04:14:35;;;;;;;1.00;1.00;;;;;;;5.95;72.40;97791.16;5010517;28;19921;-91
2024/01/01 04:17:03;;;;;;;0.80;0.80;;;;;;;5.94;72.49;97789.31;4992304;28;20056;-90
2024/01/01 04:19:29;;;;;;;0.80;0.80;;;;;;;5.95;72.34;97789.41;5012515;28;20100;-89
2024/01/01 04:21:55;;;;;;;0.80;0.80;;;;;;;5.90;72.61;97788.31;5011462;28;20025;-87
2024/01/01 04:24:21;;;;;;;0.80;0.80;;;;;;;5.83;72.77;97784.56;5024194;28;20037;-88
2024/01/01 04:26:46;;;;;;;0.90;0.90;;;;;;;5.76;72.87;97787.88;5006883;28;20045;-88
2024/01/01 04:29:12;;;;;;;0.80;0.80;;;;;;;5.71;73.23;97791.22;5009158;28;20084;-88
2024/01/01 04:31:37;;;;;;;0.90;0.90;;;;;;;5.71;72.65;97786.81;4995299;28;20034;-88
2024/01/01 04:34:03;;;;;;;0.90;0.90;;;;;;;5.61;73.29;97790.91;5010127;28;20113;-91
2024/01/01 04:36:30;;;;;;;0.82;0.82;;;;;;;5.65;73.10;97802.47;4986405;28;21200;-89
2024/01/01 04:38:56;;;;;;;0.90;0.90;;;;;;;5.64;73.65;97800.69;5012241;28;20065;-89
2024/01/01 04:41:22;;;;;;;0.90;0.90;;;;;;;5.56;73.31;97802.19;5010453;28;20496;-89
2024/01/01 04:43:47;;;;;;;0.80;0.80;;;;;;;5.40;73.88;97804.28;4993271;28;20049;-91
2024/01/01 04:46:13;;;;;;;0.90;0.90;;;;;;;5.40;74.33;97800.75;5007503;28;20038;-88
2024/01/01 04:48:40;;;;;;;0.80;0.80;;;;;;;5.16;74.90;97800.81;5010639;28;20037;-88
2024/01/01 04:51:06;;;;;;;1.00;1.00;;;;;;;5.45;74.02;97790.34;4987683;28;20033;-88
2024/01/01 04:53:32;;;;;;;0.90;0.90;;;;;;;5.31;74.21;97788.09;5007135;28;20516;-87
2024/01/01 04:55:57;;;;;;;0.90;0.90;;;;;;;5.46;73.75;97786.84;4990606;28;20068;-88
2024/01/01 04:58:23;;;;;;;0.90;0.90;;;;;;;5.48;73.33;97779.88;5023562;28;20096;-88
2024/01/01 05:00:48;;;;;;;0.90;0.90;;;;;;;5.45;73.55;97787.69;4992522;28;20033;-89
2024/01/01 05:03:13;;;;;;;0.90;0.90;;;;;;;5.44;73.92;97785.91;5010279;28;20042;-88
2024/01/01 05:05:39;;;;;;;0.98;0.98;;;;;;;5.31;73.90;97779.28;4994708;28;20045;-89
2024/01/01 05:08:07;;;;;;;0.90;0.90;;;;;;;4.97;75.05;97791.31;4985974;28;20088;-88
2024/01/01 05:10:33;;;;;;;0.90;0.90;;;;;;;5.02;75.08;97781.81;5006608;28;20025;-88
2024/01/01 05:13:00;;;;;;;0.90;0.90;;;;;;;4.91;75.92;97784.94;5010053;28;20041;-89
2024/01/01 05:15:26;;;;;;;1.00;1.00;;;;;;;4.94;75.25;97782.41;5007836;28;20517;-89
2024/01/01 05:17:52;;;;;;;0.90;0.90;;;;;;;5.03;75.54;97793.28;4990940;28;20034;-88
2024/01/01 05:20:17;;;;;;;0.98;0.98;;;;;;;4.84;75.88;97797.94;5010431;28;20045;-88
2024/01/01 05:22:43;;;;;;;0.90;0.90;;;;;;;4.83;75.75;97801.41;5009672;28;20038;-88
2024/01/01 05:25:08;;;;;;;0.90;0.90;;;;;;;4.93;75.71;97793.78;5007855;28;20851;-88
2024/01/01 05:27:34;;;;;;;0.90;0.90;;;;;;;4.72;76.24;97804.50;5005493;28;20044;-87
2024/01/01 05:30:00;;;;;;;0.90;0.90;;;;;;;4.85;75.71;97812.03;5011987;28;20034;-88
2024/01/01 05:32:26;;;;;;;1.00;1.00;;;;;;;4.95;75.54;97813.28;4992538;28;20030;-88
2024/01/01 05:34:51;;;;;;;0.90;0.90;;;;;;;4.93;75.36;97813.19;4993273;28;20092;-88
2024/01/01 05:37:17;;;;;;;1.00;1.00;;;;;;;4.98;75.22;97822.19;5006500;28;20561;-88
2024/01/01 05:39:42;;;;;;;1.00;1.00;;;;;;;5.15;74.43;97823.69;4992029;28;20021;-88
2024/01/01 05:42:10;;;;;;;1.00;1.00;;;;;;;5.20;74.01;97817.69;4991656;28;20084;-88
2024/01/01 05:44:36;;;;;;;0.90;0.90;;;;;;;5.20;73.81;97813.28;4991604;28;20041;-88
2024/01/01 05:47:02;;;;;;;0.80;0.80;;;;;;;5.30;73.15;97812.75;4992664;28;20081;-88
2024/01/01 05:49:28;;;;;;;1.00;1.00;;;;;;;5.39;72.56;97818.38;5015320;28;20511;-88
2024/01/01 05:51:53;;;;;;;1.00;1.00;;;;;;;5.36;72.98;97815.63;5007887;28;20400;-87
2024/01/01 05:54:18;;;;;;;1.00;1.00;;;;;;;5.28;73.36;97825.03;5009462;28;20026;-87
2024/01/01 05:56:44;;;;;;;0.90;0.90;;;;;;;5.24;73.69;97820.50;4990189;28;20026;-88
2024/01/01 05:59:10;;;;;;;1.00;1.00;;;;;;;5.36;73.20;97830.59;5007126;28;20053;-88
2024/01/01 06:01:36;;;;;;;0.90;0.90;;;;;;;5.35;73.59;97847.31;5005706;28;20317;-89
2024/01/01 06:04:02;;;;;;;0.90;0.90;;;;;;;5.41;73.02;97839.56;4989745;28;20040;-89
2024/01/01 06:06:27;;;;;;;0.90;0.90;;;;;;;5.43;72.80;97821.13;5020939;28;20042;-89
2024/01/01 06:08:53;;;;;;;0.90;0.90;;;;;;;5.52;72.21;97838.22;5010274;28;20030;-89
2024/01/01 06:11:18;;;;;;;0.90;0.90;;;;;;;5.49;72.43;97846.03;5007854;28;20034;-88
2024/01/01 06:13:45;;;;;;;0.85;0.85;;;;;;;5.65;71.89;97851.03;5007433;28;20033;-88
2024/01/01 06:16:13;;;;;;;1.00;1.00;;;;;;;5.70;71.25;97840.59;5007623;28;20075;-88
2024/01/01 06:18:38;;;;;;;0.90;0.90;;;;;;;5.69;71.81;97854.66;4991216;28;20072;-89
2024/01/01 06:21:04;;;;;;;0.90;0.90;;;;;;;5.68;71.09;97862.56;5009412;28;20037;-89
2024/01/01 06:23:30;;;;;;;0.90;0.90;;;;;;;5.69;71.05;97854.66;4994346;28;20038;-88
2024/01/01 06:25:56;;;;;;;0.98;0.98;;;;;;;5.71;70.71;97855.63;5006093;28;20533;-90
2024/01/01 06:28:22;;;;;;;0.82;0.82;;;;;;;5.63;71.08;97867.69;5011100;28;20065;-88
2024/01/01 06:30:47;;;;;;;1.00;1.00;;;;;;;5.69;70.47;97861.69;5011729;28;20116;-88
2024/01/01 06:33:13;;;;;;;0.90;0.90;;;;;;;5.70;70.31;97848.53;5026598;28;20538;-88
2024/01/01 06:35:41;;;;;;;0.95;0.95;;;;;;;5.81;69.90;97865.66;4993428;28;20032;-88
2024/01/01 06:38:08;;;;;;;0.90;0.90;;;;;;;5.85;69.35;97862.28;5005820;28;20038;-88
2024/01/01 06:40:35;;;;;;;1.00;1.00;;;;;;;5.97;68.86;97852.97;5007632;28;20463;-87
2024/01/01 06:43:02;;;;;;;0.90;0.90;;;;;;;5.88;69.45;97861.47;4991703;28;20503;-89
2024/01/01 06:45:27;;;;;;;0.90;0.90;;;;;;;5.87;69.10;97855.28;4993553;28;20025;-89
2024/01/01 06:47:53;;;;;;;0.90;0.90;;;;;;;5.84;68.40;97852.53;4991477;28;20045;-89
2024/01/01 06:50:18;;;;;;;0.93;0.93;;;;;;;5.88;68.63;97850.88;5025654;28;20041;-89
2024/01/01 06:52:45;;;;;;;0.90;0.90;;;;;;;5.85;68.58;97854.34;5007354;28;20034;-90
2024/01/01 06:55:11;;;;;;;0.70;0.70;;;;;;;5.83;68.90;97860.41;5007348;28;20022;-88
2024/01/01 06:57:36;;;;;;;0.95;0.95;;;;;;;5.75;69.15;97854.88;4991080;28;20037;-87
2024/01/01 07:00:03;;;;;;;0.90;0.90;;;;;;;5.68;69.19;97870.50;5005318;28;20026;-88
2024/01/01 07:02:28;;;;;;;1.00;1.00;;;;;;;5.44;69.78;97866.16;4986398;28;20029;-88
2024/01/01 07:04:54;;;;;;;0.80;0.80;;;;;;;5.22;70.62;97869.78;5004585;28;21234;-87
2024/01/01 07:07:19;;;;;;;0.80;0.80;;;;;;;5.13;70.90;97872.09;5006125;28;20049;-88
2024/01/01 07:09:45;;;;;;;0.80;0.80;;;;;;;5.01;71.30;97879.56;5008084;28;20395;-89
2024/01/01 07:12:23;;;;;;;0.90;0.90;;;;;;;5.07;70.53;97883.31;4993604;28;20642;-89
2024/01/01 07:14:49;;;;;;;1.00;1.00;;;;;;;5.19;70.40;97884.63;5009165;28;20061;-89
2024/01/01 07:17:14;;;;;;;1.00;1.00;;;;;;;5.09;70.81;97904.56;5022095;28;20041;-90
2024/01/01 07:19:40;;;;;;;0.90;0.90;;;;;;;5.20;70.67;97900.56;4975963;28;20046;-90
2024/01/01 07:22:05;;;;;;;0.90;0.90;;;;;;;5.12;71.38;97904.66;5021111;28;20040;-89
2024/01/01 07:24:31;;;;;;;0.80;0.80;;;;;;;5.24;70.64;97914.78;5009202;28;20045;-90
2024/01/01 07:26:57;;;;;;;1.00;1.00;;;;;;;5.12;70.98;97920.50;5005470;28;20057;-90
2024/01/01 07:29:27;;;;;;;1.00;1.00;;;;;;;5.13;71.30;97911.75;5009974;28;20038;-90
2024/01/01 07:31:53;;;;;;;0.90;0.90;;;;;;;5.08;71.44;97921.28;4994158;28;20120;-89
2024/01/01 07:34:19;;;;;;;0.90;0.90;;;;;;;5.08;71.64;97918.63;5009898;28;20042;-89
2024/01/01 07:36:46;;;;;;;0.90;0.90;;;;;;;5.04;71.81;97919.34;5010651;28;20037;-90
2024/01/01 07:39:19;;;;;;;0.90;0.90;;;;;;;5.22;71.06;97932.31;5010044;28;20046;-90
2024/01/01 07:41:51;;;;;;;1.00;1.00;;;;;;;5.26;70.88;97934.25;5011926;28;20038;-88
2024/01/01 07:44:17;;;;;;;1.00;1.00;;;;;;;5.23;71.23;97935.06;5013042;28;20049;-88
2024/01/01 07:46:43;;;;;;;1.00;1.00;;;;;;;5.34;70.65;97946.91;5012996;28;20038;-89
2024/01/01 07:49:08;;;;;;;1.00;1.00;;;;;;;5.36;70.51;97941.66;5018700;28;20039;-90
2024/01/01 07:51:34;;;;;;;1.00;1.00;;;;;;;5.33;70.48;97942.47;5034793;28;20487;-89
2024/01/01 07:54:00;;;;;;;1.00;1.00;;;;;;;5.38;70.27;97942.66;4990528;28;20088;-88
2024/01/01 07:56:27;;;;;;;1.00;1.00;;;;;;;5.38;70.46;97942.66;4995855;28;20137;-88
2024/01/01 07:58:53;;;;;;;1.00;1.00;;;;;;;5.42;70.42;97948.97;5013922;28;20125;-89
2024/01/01 08:01:19;;;;;;;1.00;1.00;;;;;;;5.53;69.85;97944.94;5011825;28;20049;-88
2024/01/01 08:03:44;;;;;;;0.90;0.90;;;;;;;5.60;69.47;97954.88;5028942;28;20033;-88
2024/01/01 08:06:10;;;;;;;1.00;1.00;;;;;;;5.53;69.78;97945.84;5004863;28;20033;-87
2024/01/01 08:08:35;;;;;;;1.00;1.00;;;;;;;5.52;69.95;97946.69;5005858;28;20377;-90
2024/01/01 08:11:01;;;;;;;1.00;1.00;;;;;;;5.56;69.76;97948.63;5018659;28;20025;-89
2024/01/01 08:13:27;;;;;;;1.00;1.00;;;;;;;5.64;69.28;97959.44;5017649;28;20050;-87
2024/01/01 08:15:52;;;;;;;0.90;0.90;;;;;;;5.77;68.92;97950.22;5011665;28;20033;-87
2024/01/01 08:18:18;;;;;;;1.00;1.00;;;;;;;6.22;67.49;97953.56;5011128;28;20037;-88
2024/01/01 08:20:44;;;;;;;1.00;1.00;;;;;;;6.57;66.21;97949.44;5014167;28;20089;-87
2024/01/01 08:23:10;;;;;;;0.90;0.90;;;;;;;6.70;65.67;97950.69;5024511;28;20483;-87
2024/01/01 08:25:40;;;;;;;0.93;0.93;;;;;;;6.90;65.32;97948.69;4993884;28;20048;-87
2024/01/01 08:28:06;;;;;;;0.93;0.93;;;;;;;7.16;64.71;97947.72;5013663;28;20029;-87
2024/01/01 08:30:31;;;;;;;0.90;0.90;;;;;;;7.35;63.93;97964.19;5012139;28;20033;-87
2024/01/01 08:32:58;;;;;;;0.90;0.90;;;;;;;7.20;64.59;97965.53;5006618;28;20120;-88
2024/01/01 08:35:23;;;;;;;0.90;0.90;;;;;;;7.06;64.64;97965.97;5012941;28;20030;-88
2024/01/01 08:37:49;;;;;;;0.80;0.80;;;;;;;6.67;65.97;97969.19;5009263;28;20091;-86
2024/01/01 08:40:15;;;;;;;0.90;0.90;;;;;;;6.41;67.02;97974.50;5012033;28;20041;-87
2024/01/01 08:42:40;;;;;;;1.00;1.00;;;;;;;6.68;66.17;97965.66;5004428;28;20535;-87
2024/01/01 08:45:06;;;;;;;1.00;1.00;;;;;;;6.66;66.09;97965.63;5025846;28;20458;-88
2024/01/01 08:47:32;;;;;;;0.80;0.80;;;;;;;6.43;67.00;97971.94;5008187;28;20038;-87
2024/01/01 08:49:57;;;;;;;0.93;0.93;;;;;;;6.38;67.46;97969.13;5007331;28;20447;-87
2024/01/01 08:52:23;;;;;;;0.90;0.90;;;;;;;6.10;68.04;97942.56;5010784;28;20419;-88
2024/01/01 08:54:48;;;;;;;0.98;0.98;;;;;;;6.29;67.79;97968.81;5008910;28;20038;-87
2024/01/01 08:57:14;;;;;;;0.90;0.90;;;;;;;6.51;67.35;97950.97;5007284;28;20022;-88
2024/01/01 08:59:40;;;;;;;1.00;1.00;;;;;;;7.25;65.14;97955.06;5028116;28;20654;-89
2024/01/01 09:02:06;;;;;;;0.90;0.90;;;;;;;7.33;64.60;97965.88;4992999;28;20037;-88
2024/01/01 09:04:32;;;;;;;0.90;0.90;;;;;;;6.83;65.61;97968.78;4988226;28;20049;-88
2024/01/01 09:07:00;;;;;;;0.90;0.90;;;;;;;6.65;66.34;97970.88;4993244;28;20598;-87
2024/01/01 09:09:29;;;;;;;0.90;0.90;;;;;;;6.44;66.45;97963.13;5008834;28;20038;-87
2024/01/01 09:11:55;;;;;;;0.90;0.90;;;;;;;6.45;66.70;97969.31;5030848;28;20038;-86
2024/01/01 09:14:21;;;;;;;0.82;0.82;;;;;;;6.33;67.45;97969.84;5015457;28;20029;-87
2024/01/01 09:16:47;;;;;;;0.90;0.90;;;;;;;6.46;67.46;97968.47;4997454;28;20037;-87
2024/01/01 09:19:18;;;;;;;1.00;1.00;;;;;;;6.42;67.46;97980.75;4995954;28;20087;-86
2024/01/01 09:21:46;;;;;;;0.90;0.90;;;;;;;6.39;67.56;97978.88;4991641;28;20041;-86
2024/01/01 09:24:11;;;;;;;0.90;0.90;;;;;;;6.64;67.40;97985.88;5009634;28;20026;-89
2024/01/01 09:26:40;;;;;;;1.00;1.00;;;;;;;6.89;65.97;97986.66;5008479;28;20100;-88
2024/01/01 09:29:05;;;;;;;0.90;0.90;;;;;;;7.30;64.35;97987.03;5016579;28;20061;-88
2024/01/01 09:31:32;;;;;;;1.00;1.00;;;;;;;7.48;63.96;97984.03;5008359;28;20033;-89
2024/01/01 09:34:00;;;;;;;0.90;0.90;;;;;;;7.77;63.35;97977.78;5009105;28;20120;-88
2024/01/01 09:36:29;;;;;;;0.90;0.90;;;;;;;7.92;62.82;97987.94;5007998;28;20026;-88
2024/01/01 09:38:54;;;;;;;0.90;0.90;;;;;;;7.81;63.13;97978.75;5025485;28;20029;-87
2024/01/01 09:41:24;;;;;;;0.90;0.90;;;;;;;8.37;61.86;97982.97;4994954;28;20041;-88
2024/01/01 09:43:52;;;;;;;0.80;0.80;;;;;;;8.53;61.14;97981.59;5008215;28;20171;-88
2024/01/01 09:46:18;;;;;;;0.90;0.90;;;;;;;8.44;61.67;97981.38;4993460;28;20030;-87
2024/01/01 09:48:48;;;;;;;0.90;0.90;;;;;;;8.65;60.60;97989.88;4992606;28;20075;-87
2024/01/01 09:51:14;;;;;;;0.90;0.90;;;;;;;8.87;60.17;97993.06;5007986;28;20064;-87
2024/01/01 09:53:40;;;;;;;0.80;0.80;;;;;;;8.86;59.77;97986.84;5007907;28;20042;-87
2024/01/01 09:56:06;;;;;;;0.80;0.80;;;;;;;8.20;61.75;97984.25;4992071;28;20145;-87
2024/01/01 09:58:45;;;;;;;0.80;0.80;;;;;;;8.62;60.52;97986.22;5011143;28;20040;-87
2024/01/01 10:01:19;;;;;;;0.80;0.80;;;;;;;8.26;61.55;97987.06;4985997;28;20099;-87
2024/01/01 10:04:09;;;;;;;0.82;0.82;;;;;;;8.58;60.29;97989.69;5012504;28;20105;-88
2024/01/01 10:06:36;;;;;;;0.82;0.82;;;;;;;9.06;58.69;97986.41;4995694;28;20049;-88
2024/01/01 10:09:10;;;;;;;0.90;0.90;;;;;;;9.73;56.83;97985.22;5016900;28;20018;-89
2024/01/01 10:11:40;;;;;;;0.70;0.70;;;;;;;10.09;55.95;97982.34;4999287;28;20050;-90
2024/01/01 10:14:08;;;;;;;0.70;0.70;;;;;;;9.91;56.38;97982.00;4997378;28;20041;-91
2024/01/01 10:16:34;;;;;;;0.73;0.73;;;;;;;10.15;55.57;97977.13;5022499;28;20022;-92
2024/01/01 10:19:02;;;;;;;0.80;0.80;;;;;;;10.30;55.28;97976.56;5013515;28;21143;-92
2024/01/01 10:21:30;;;;;;;0.80;0.80;;;;;;;10.41;54.54;97969.66;5044964;28;20040;-90
2024/01/01 10:23:57;;;;;;;0.70;0.70;;;;;;;10.15;55.12;97985.13;5028237;28;20053;-90
2024/01/01 10:26:23;;;;;;;0.70;0.70;;;;;;;10.29;53.65;97964.09;5019977;28;20037;-90
2024/01/01 10:28:48;;;;;;;0.80;0.80;;;;;;;10.85;52.96;97966.81;5014742;28;20034;-90
2024/01/01 10:31:15;;;;;;;0.70;0.70;;;;;;;9.89;54.80;97981.09;5009909;28;20029;-90
2024/01/01 10:33:41;;;;;;;0.80;0.80;;;;;;;10.46;54.27;97975.97;4995018;28;20064;-90
2024/01/01 10:36:07;;;;;;;0.80;0.80;;;;;;;10.43;54.46;97983.00;5025104;28;20038;-90
2024/01/01 10:38:36;;;;;;;0.70;0.70;;;;;;;11.35;51.54;97968.44;5032242;28;20073;-91
2024/01/01 10:41:03;;;;;;;0.70;0.70;;;;;;;11.97;49.73;97963.00;5013178;28;20045;-90
2024/01/01 10:43:29;;;;;;;0.60;0.60;;;;;;;11.47;51.24;97982.84;5007796;28;20498;-89
2024/01/01 10:46:01;;;;;;;0.60;0.60;;;;;;;10.02;55.48;97983.13;5012366;28;20048;-89
2024/01/01 10:48:27;;;;;;;0.70;0.70;;;;;;;9.40;56.79;97985.41;5003137;28;20051;-90
2024/01/01 10:51:03;;;;;;;0.60;0.60;;;;;;;9.07;57.90;98002.41;4995529;28;20678;-89
2024/01/01 10:53:47;;;;;;;0.80;0.80;;;;;;;8.56;59.12;97994.06;5013826;28;20080;-89
2024/01/01 10:56:32;;;;;;;0.70;0.70;;;;;;;9.00;58.75;97988.03;5010924;28;20093;-91
2024/01/01 10:59:05;;;;;;;0.70;0.70;;;;;;;9.00;58.81;97989.81;4995799;28;20444;-90
2024/01/01 11:01:32;;;;;;;0.70;0.70;;;;;;;8.64;59.20;97988.09;5010740;28;20052;-91
2024/01/01 11:03:57;;;;;;;;;;;;;;;8.55;59.58;97985.19;5030874;28;20026;-90
2024/01/01 11:06:27;;;;;;;0.90;0.90;;;;;;;8.25;60.68;97987.94;4995447;28;19929;-90
2024/01/01 11:08:54;;;;;;;0.70;0.70;;;;;;;8.36;59.87;97994.47;4993922;28;20045;-92
2024/01/01 11:11:32;;;;;;;0.82;0.82;;;;;;;8.25;59.87;97987.03;5024362;28;20124;-89
2024/01/01 11:14:00;;;;;;;0.80;0.80;;;;;;;8.24;60.53;97994.13;5006442;28;20331;-89
2024/01/01 11:16:26;;;;;;;0.80;0.80;;;;;;;8.38;60.53;97984.75;5005229;28;20038;-90
2024/01/01 11:18:52;;;;;;;0.80;0.80;;;;;;;7.74;63.17;97984.75;5008076;28;20061;-88
2024/01/01 11:21:32;;;;;;;0.80;0.80;;;;;;;7.49;64.31;97988.47;5007397;28;20076;-89
2024/01/01 11:24:01;;;;;;;0.70;0.70;;;;;;;7.65;63.93;97996.00;5023977;28;20121;-88
2024/01/01 11:26:32;;;;;;;0.70;0.70;;;;;;;7.54;64.34;97982.44;5009256;28;20030;-89
2024/01/01 11:29:06;;;;;;;0.80;0.80;;;;;;;7.52;63.83;97994.78;5003541;28;20041;-89
2024/01/01 11:31:33;;;;;;;0.80;0.80;;;;;;;7.25;64.50;98007.22;5006871;28;20038;-89
2024/01/01 11:34:09;;;;;;;0.90;0.90;;;;;;;6.71;68.67;98024.09;4990697;28;20552;-89
2024/01/01 11:36:45;;;;;;;0.90;0.90;;;;;;;6.35;72.81;98029.06;5008963;28;20030;-87
2024/01/01 11:39:11;;;;;;;0.90;0.90;;;;;;;6.11;73.56;98019.41;4993844;28;20737;-87